createdAt,value
2017-10-03T00:02:03.767Z,100361.08
2017-10-03T00:04:34.878Z,100350.66
2017-10-03T00:07:06.965Z,100344.63
2017-10-03T00:09:38.047Z,100334.92
2017-10-03T00:12:09.184Z,100336.38
2017-10-03T00:14:40.323Z,100337.62
2017-10-03T00:17:11.729Z,100333.43
2017-10-03T00:19:42.955Z,100332.83
2017-10-03T00:22:15.209Z,100333.18
2017-10-03T00:24:46.272Z,100332.88
2017-10-03T00:27:17.612Z,100335.75
2017-10-03T00:29:48.930Z,100361.48
2017-10-03T00:32:23.725Z,100364.78
2017-10-03T00:34:54.800Z,100356.73
2017-10-03T00:37:27.762Z,100347.00
2017-10-03T00:39:59.421Z,100345.37
2017-10-03T00:45:36.037Z,100323.29
2017-10-03T00:48:08.247Z,100315.64
2017-10-03T00:50:39.352Z,100313.25
2017-10-03T00:53:10.436Z,100317.34
2017-10-03T00:55:41.652Z,100339.77
2017-10-03T00:58:13.135Z,100336.69
2017-10-03T01:00:44.481Z,100329.94
2017-10-03T01:03:22.040Z,100337.88
2017-10-03T01:05:53.797Z,100327.16
2017-10-03T01:08:27.105Z,100328.73
2017-10-03T01:10:59.052Z,100329.11
2017-10-03T01:13:30.552Z,100334.87
2017-10-03T01:16:02.766Z,100329.48
2017-10-03T01:18:34.160Z,100315.67
2017-10-03T01:21:05.503Z,100299.05
2017-10-03T01:23:36.661Z,100285.86
2017-10-03T01:26:08.421Z,100278.61
2017-10-03T01:28:42.449Z,100271.44
2017-10-03T01:31:15.646Z,100274.05
2017-10-03T01:33:46.822Z,100279.42
2017-10-03T01:36:20.124Z,100284.37
2017-10-03T01:38:51.394Z,100294.83
2017-10-03T01:41:23.133Z,100294.36
2017-10-03T01:43:54.558Z,100300.59
2017-10-03T01:46:26.960Z,100294.78
2017-10-03T01:48:58.289Z,100303.67
2017-10-03T01:51:29.959Z,100318.84
2017-10-03T01:54:02.879Z,100335.66
2017-10-03T01:56:35.460Z,100339.14
2017-10-03T01:59:06.510Z,100341.06
2017-10-03T02:01:37.603Z,100345.05
2017-10-03T02:04:09.542Z,100357.58
2017-10-03T02:06:42.781Z,100371.38
2017-10-03T02:09:17.921Z,100359.61
2017-10-03T02:11:49.033Z,100320.44
2017-10-03T02:14:20.841Z,100321.95
2017-10-03T02:16:51.993Z,100322.42
2017-10-03T02:19:24.848Z,100346.55
2017-10-03T02:21:56.622Z,100353.28
2017-10-03T02:24:31.301Z,100346.99
2017-10-03T02:27:03.316Z,100341.63
2017-10-03T02:29:38.475Z,100330.41
2017-10-03T02:32:11.993Z,100353.87
2017-10-03T02:34:43.063Z,100362.41
2017-10-03T02:37:14.900Z,100351.77
2017-10-03T02:39:46.236Z,100350.20
2017-10-03T02:42:17.899Z,100335.75
2017-10-03T02:44:49.737Z,100348.58
2017-10-03T02:47:21.672Z,100365.47
2017-10-03T02:49:53.850Z,100386.98
2017-10-03T02:52:25.898Z,100381.63
2017-10-03T02:54:57.031Z,100368.92
2017-10-03T02:57:29.741Z,100374.39
2017-10-03T03:00:03.084Z,100380.94
2017-10-03T03:02:34.385Z,100382.77
2017-10-03T03:05:07.232Z,100354.53
2017-10-03T03:07:40.197Z,100344.48
2017-10-03T03:10:12.912Z,100341.52
2017-10-03T03:12:44.012Z,100331.08
2017-10-03T03:15:15.099Z,100331.39
2017-10-03T03:17:46.183Z,100340.12
2017-10-03T03:20:17.932Z,100352.73
2017-10-03T03:22:50.003Z,100358.94
2017-10-03T03:25:21.456Z,100372.14
2017-10-03T03:27:53.981Z,100354.55
2017-10-03T03:30:26.604Z,100341.03
2017-10-03T03:32:58.483Z,100335.95
2017-10-03T03:35:31.606Z,100341.89
2017-10-03T03:38:04.781Z,100343.14
2017-10-03T03:40:35.919Z,100348.02
2017-10-03T03:43:09.332Z,100337.33
2017-10-03T03:45:40.420Z,100344.78
2017-10-03T03:48:13.179Z,100358.33
2017-10-03T03:50:44.388Z,100365.89
2017-10-03T03:53:15.593Z,100375.95
2017-10-03T03:55:47.097Z,100382.66
2017-10-03T03:58:18.706Z,100404.98
2017-10-03T04:00:49.733Z,100410.06
2017-10-03T04:03:21.480Z,100404.36
2017-10-03T04:05:52.585Z,100382.88
2017-10-03T04:08:23.880Z,100353.44
2017-10-03T04:10:54.926Z,100338.58
2017-10-03T04:13:26.450Z,100340.06
2017-10-03T04:15:57.508Z,100322.05
2017-10-03T04:18:30.105Z,100326.28
2017-10-03T04:21:01.986Z,100321.94
2017-10-03T04:23:33.444Z,100311.27
2017-10-03T04:26:05.828Z,100305.53
2017-10-03T04:28:37.242Z,100306.53
2017-10-03T04:31:09.116Z,100316.70
2017-10-03T04:33:40.211Z,100317.20
2017-10-03T04:36:11.360Z,100325.73
2017-10-03T04:38:42.441Z,100328.05
2017-10-03T04:41:13.718Z,100335.08
2017-10-03T04:43:44.805Z,100348.00
2017-10-03T04:46:15.879Z,100351.25
2017-10-03T04:48:47.002Z,100352.21
2017-10-03T04:51:18.132Z,100346.38
2017-10-03T04:53:49.204Z,100343.61
2017-10-03T04:56:20.276Z,100355.09
2017-10-03T04:58:51.368Z,100372.48
2017-10-03T05:01:22.446Z,100394.02
2017-10-03T05:03:53.502Z,100405.53
2017-10-03T05:06:24.987Z,100411.70
2017-10-03T05:08:56.102Z,100422.76
2017-10-03T05:11:29.715Z,100439.30
2017-10-03T05:14:00.823Z,100448.50
2017-10-03T05:16:32.475Z,100453.38
2017-10-03T05:19:09.252Z,100470.64
2017-10-03T05:21:40.728Z,100469.71
2017-10-03T05:24:12.323Z,100473.53
2017-10-03T05:26:43.542Z,100466.61
2017-10-03T05:29:14.796Z,100484.47
2017-10-03T05:31:47.134Z,100494.52
2017-10-03T05:34:21.940Z,100504.79
2017-10-03T05:36:54.186Z,100519.44
2017-10-03T05:39:28.016Z,100523.43
2017-10-03T05:42:00.350Z,100523.64
2017-10-03T05:44:33.323Z,100529.84
2017-10-03T05:47:12.975Z,100532.80
2017-10-03T05:49:45.737Z,100531.34
2017-10-03T05:52:16.908Z,100523.00
2017-10-03T05:54:47.983Z,100527.03
2017-10-03T05:57:20.847Z,100540.90
2017-10-03T05:59:53.616Z,100546.93
2017-10-03T06:02:25.345Z,100548.67
2017-10-03T06:04:56.858Z,100548.67
2017-10-03T06:07:30.211Z,100553.42
2017-10-03T06:10:03.924Z,100553.70
2017-10-03T06:12:35.346Z,100548.47
2017-10-03T06:15:06.458Z,100551.59
2017-10-03T06:17:37.880Z,100565.29
2017-10-03T06:20:09.202Z,100576.17
2017-10-03T06:22:41.400Z,100581.52
2017-10-03T06:25:13.651Z,100583.48
2017-10-03T06:27:45.269Z,100579.21
2017-10-03T06:30:19.905Z,100579.79
2017-10-03T06:32:51.213Z,100584.94
2017-10-03T06:35:23.358Z,100589.73
2017-10-03T06:37:54.447Z,100589.44
2017-10-03T06:40:30.449Z,100608.03
2017-10-03T06:43:05.424Z,100617.20
2017-10-03T06:45:36.828Z,100613.75
2017-10-03T06:48:08.965Z,100627.84
2017-10-03T06:50:40.148Z,100633.45
2017-10-03T06:53:11.204Z,100639.09
2017-10-03T06:55:42.797Z,100646.98
2017-10-03T06:58:15.395Z,100641.84
2017-10-03T07:00:46.672Z,100637.81
2017-10-03T07:03:17.865Z,100647.84
2017-10-03T07:05:49.295Z,100651.83
2017-10-03T07:08:21.231Z,100650.14
2017-10-03T07:13:50.358Z,100662.27
2017-10-03T07:16:25.223Z,100660.69
2017-10-03T07:18:56.909Z,100671.86
2017-10-03T07:21:28.778Z,100674.21
2017-10-03T07:24:03.011Z,100679.88
2017-10-03T07:26:34.294Z,100690.59
2017-10-03T07:29:09.741Z,100697.65
2017-10-03T07:31:44.800Z,100701.77
2017-10-03T07:34:17.582Z,100709.05
2017-10-03T07:36:50.374Z,100708.87
2017-10-03T07:39:24.007Z,100723.92
2017-10-03T07:42:13.083Z,100720.20
2017-10-03T07:44:44.590Z,100733.55
2017-10-03T07:47:24.149Z,100737.02
2017-10-03T07:53:02.888Z,100739.20
2017-10-03T07:55:38.307Z,100743.86
2017-10-03T07:58:17.874Z,100741.63
2017-10-03T08:00:52.204Z,100742.11
2017-10-03T08:03:31.572Z,100750.14
2017-10-03T08:09:06.908Z,100758.66
2017-10-03T08:11:41.891Z,100763.19
2017-10-03T08:14:13.589Z,100765.44
2017-10-03T08:16:46.804Z,100773.03
2017-10-03T08:19:20.259Z,100779.00
2017-10-03T08:21:55.078Z,100779.97
2017-10-03T08:24:27.406Z,100792.51
2017-10-03T08:27:07.548Z,100781.42
2017-10-03T08:32:38.453Z,100797.39
2017-10-03T08:35:11.366Z,100802.41
2017-10-03T08:43:35.466Z,100816.19
2017-10-03T08:46:10.709Z,100822.20
2017-10-03T08:48:42.318Z,100822.77
2017-10-03T08:51:13.647Z,100821.91
2017-10-03T08:53:44.814Z,100821.66
2017-10-03T08:56:18.458Z,100826.08
2017-10-03T08:58:49.877Z,100836.70
2017-10-03T09:01:21.137Z,100837.20
2017-10-03T09:03:52.359Z,100840.19
2017-10-03T09:06:23.671Z,100836.70
2017-10-03T09:09:02.879Z,100845.09
2017-10-03T09:11:39.558Z,100844.53
2017-10-03T09:14:19.830Z,100861.66
2017-10-03T09:16:50.930Z,100865.90
2017-10-03T09:19:22.441Z,100864.37
2017-10-03T09:21:53.586Z,100870.41
2017-10-03T09:24:26.024Z,100869.30
2017-10-03T09:26:57.300Z,100880.30
2017-10-03T09:29:31.266Z,100862.05
2017-10-03T09:32:04.781Z,100878.48
2017-10-03T09:34:36.723Z,100875.12
2017-10-03T09:37:07.903Z,100884.17
2017-10-03T09:39:40.304Z,100894.66
2017-10-03T09:42:12.040Z,100894.95
2017-10-03T09:44:44.194Z,100901.30
2017-10-03T09:47:19.507Z,100890.94
2017-10-03T09:49:52.046Z,100886.53
2017-10-03T09:52:24.623Z,100897.15
2017-10-03T09:54:57.161Z,100906.94
2017-10-03T09:57:30.583Z,100910.62
2017-10-03T10:00:03.678Z,100907.42
2017-10-03T10:02:34.985Z,100906.20
2017-10-03T10:05:06.170Z,100914.47
2017-10-03T10:10:43.557Z,100910.52
2017-10-03T10:13:19.303Z,100907.62
2017-10-03T10:15:52.747Z,100906.02
2017-10-03T10:18:26.451Z,100919.38
2017-10-03T10:21:03.091Z,100927.95
2017-10-03T10:23:35.918Z,100930.31
2017-10-03T10:26:13.973Z,100934.86
2017-10-03T10:28:49.110Z,100930.48
2017-10-03T10:31:20.617Z,100935.46
2017-10-03T10:33:54.428Z,100935.60
2017-10-03T10:36:28.159Z,100941.16
2017-10-03T10:39:02.951Z,100939.45
2017-10-03T10:44:33.732Z,100947.80
2017-10-03T10:47:07.964Z,100943.41
2017-10-03T10:49:39.343Z,100940.40
2017-10-03T10:52:10.601Z,100947.06
2017-10-03T10:54:41.694Z,100949.34
2017-10-03T11:00:22.359Z,100966.33
2017-10-03T11:02:53.501Z,100949.89
2017-10-03T11:05:25.705Z,100952.38
2017-10-03T11:07:57.200Z,100956.59
2017-10-03T11:13:36.037Z,100952.56
2017-10-03T11:16:08.575Z,100957.73
2017-10-03T11:21:45.154Z,100961.95
2017-10-03T11:24:50.845Z,100967.95
2017-10-03T11:27:29.978Z,100971.23
2017-10-03T11:33:04.427Z,100977.38
2017-10-03T11:35:35.576Z,100980.11
2017-10-03T11:38:10.488Z,100991.84
2017-10-03T11:40:42.034Z,100999.66
2017-10-03T11:43:13.134Z,100985.02
2017-10-03T11:45:44.210Z,100983.34
2017-10-03T11:48:16.001Z,100982.63
2017-10-03T11:50:47.161Z,100980.94
2017-10-03T11:53:18.948Z,100985.49
2017-10-03T11:55:50.529Z,100982.64
2017-10-03T11:58:24.719Z,100988.63
2017-10-03T12:00:55.810Z,100982.79
2017-10-03T12:03:27.225Z,100996.14
2017-10-03T12:05:58.301Z,100999.83
2017-10-03T12:08:29.378Z,100998.96
2017-10-03T12:11:01.031Z,101009.70
2017-10-03T12:13:32.077Z,101013.16
2017-10-03T12:16:07.870Z,101016.77
2017-10-03T12:18:39.328Z,101019.03
2017-10-03T12:21:10.387Z,101020.77
2017-10-03T12:23:41.492Z,101034.14
2017-10-03T12:26:13.770Z,101027.56
2017-10-03T12:28:44.836Z,101032.12
2017-10-03T12:31:15.912Z,101032.66
2017-10-03T12:33:47.817Z,101039.25
2017-10-03T12:36:20.258Z,101034.28
2017-10-03T12:38:51.347Z,101025.84
2017-10-03T12:41:25.389Z,101033.24
2017-10-03T12:43:56.577Z,101025.97
2017-10-03T12:46:28.048Z,101031.16
2017-10-03T12:49:00.223Z,101033.94
2017-10-03T12:51:31.291Z,101037.14
2017-10-03T12:54:03.165Z,101035.05
2017-10-03T12:56:34.605Z,101035.59
2017-10-03T12:59:05.674Z,101039.15
2017-10-03T13:01:36.728Z,101033.03
2017-10-03T13:04:10.745Z,101043.72
2017-10-03T13:06:41.937Z,101032.53
2017-10-03T13:09:12.977Z,101038.38
2017-10-03T13:11:44.336Z,101044.23
2017-10-03T13:14:15.512Z,101043.70
2017-10-03T13:16:46.682Z,101044.66
2017-10-03T13:19:17.747Z,101039.30
2017-10-03T13:21:49.370Z,101021.25
2017-10-03T13:24:22.895Z,101022.31
2017-10-03T13:26:54.312Z,101019.28
2017-10-03T13:29:27.846Z,101019.42
2017-10-03T13:31:59.224Z,101030.28
2017-10-03T13:34:31.183Z,101024.38
2017-10-03T13:37:05.108Z,101030.88
2017-10-03T13:39:36.767Z,101034.66
2017-10-03T13:42:09.863Z,101030.28
2017-10-03T13:44:41.956Z,101033.20
2017-10-03T13:47:13.786Z,101044.64
2017-10-03T13:49:45.593Z,101045.47
2017-10-03T13:52:21.648Z,101039.40
2017-10-03T13:54:53.677Z,101048.81
2017-10-03T13:57:31.002Z,101055.03
2017-10-03T14:06:07.692Z,101055.99
2017-10-03T14:08:39.654Z,101056.50
2017-10-03T14:11:11.859Z,101066.23
2017-10-03T14:13:43.070Z,101052.59
2017-10-03T14:16:14.216Z,101060.23
2017-10-03T14:18:45.330Z,101055.81
2017-10-03T14:21:16.624Z,101066.02
2017-10-03T14:23:48.140Z,101063.67
2017-10-03T14:26:24.492Z,101057.80
2017-10-03T14:28:56.059Z,101063.09
2017-10-03T14:31:27.335Z,101061.31
2017-10-03T14:33:58.476Z,101060.08
2017-10-03T14:36:30.175Z,101061.33
2017-10-03T14:39:05.523Z,101069.45
2017-10-03T14:41:42.969Z,101068.72
2017-10-03T14:47:22.500Z,101082.87
2017-10-03T14:49:56.867Z,101072.83
2017-10-03T15:01:49.321Z,101090.89
2017-10-03T15:04:31.110Z,101094.72
2017-10-03T15:10:16.775Z,101110.73
2017-10-03T15:12:51.715Z,101107.72
2017-10-03T15:15:27.557Z,101110.49
2017-10-03T15:17:58.878Z,101114.41
2017-10-03T15:20:33.627Z,101120.36
2017-10-03T15:26:11.019Z,101129.28
2017-10-03T15:28:42.259Z,101129.81
2017-10-03T15:31:14.742Z,101134.04
2017-10-03T15:33:49.219Z,101134.36
2017-10-03T15:36:27.935Z,101124.16
2017-10-03T15:38:59.527Z,101127.22
2017-10-03T15:41:34.153Z,101131.77
2017-10-03T15:44:08.039Z,101137.09
2017-10-03T15:46:39.923Z,101150.66
2017-10-03T15:49:17.568Z,101156.08
2017-10-03T15:51:56.751Z,101158.30
2017-10-03T15:54:28.613Z,101148.02
2017-10-03T15:57:00.658Z,101159.05
2017-10-03T15:59:32.048Z,101165.92
2017-10-03T16:02:06.368Z,101171.95
2017-10-03T16:04:53.694Z,101163.55
2017-10-03T16:07:34.587Z,101156.01
2017-10-03T16:10:11.440Z,101153.55
2017-10-03T16:12:46.492Z,101162.15
2017-10-03T16:15:21.302Z,101181.17
2017-10-03T16:17:56.705Z,101182.42
2017-10-03T16:23:39.767Z,101186.13
2017-10-03T16:26:12.921Z,101202.02
2017-10-03T16:28:46.609Z,101202.17
2017-10-03T16:34:28.263Z,101210.56
2017-10-03T16:37:04.644Z,101209.50
2017-10-03T16:39:38.654Z,101217.08
2017-10-03T16:42:12.433Z,101219.27
2017-10-03T16:44:43.679Z,101227.09
2017-10-03T16:47:15.391Z,101228.56
2017-10-03T16:49:46.622Z,101239.30
2017-10-03T16:52:21.055Z,101245.64
2017-10-03T16:54:54.518Z,101238.25
2017-10-03T16:57:27.518Z,101241.88
2017-10-03T17:00:00.090Z,101244.23
2017-10-03T17:03:09.016Z,101244.36
2017-10-03T17:05:41.149Z,101249.25
2017-10-03T17:08:15.649Z,101252.34
2017-10-03T17:10:46.819Z,101253.36
2017-10-03T17:13:18.988Z,101258.27
2017-10-03T17:15:50.289Z,101258.91
2017-10-03T17:18:24.296Z,101256.47
2017-10-03T17:20:55.920Z,101263.20
2017-10-03T17:23:27.731Z,101266.12
2017-10-03T17:25:58.953Z,101267.55
2017-10-03T17:28:30.432Z,101271.48
2017-10-03T17:31:01.895Z,101276.80
2017-10-03T17:33:34.413Z,101276.45
2017-10-03T17:36:08.291Z,101277.48
2017-10-03T17:38:39.948Z,101279.52
2017-10-03T17:41:11.700Z,101284.39
2017-10-03T17:43:43.181Z,101282.80
2017-10-03T17:46:17.774Z,101279.92
2017-10-03T17:48:49.352Z,101276.52
2017-10-03T17:51:25.201Z,101280.30
2017-10-03T17:53:56.946Z,101293.67
2017-10-03T17:56:28.205Z,101294.30
2017-10-03T17:59:01.521Z,101296.89
2017-10-03T18:01:33.860Z,101305.27
2017-10-03T18:04:17.176Z,101313.50
2017-10-03T18:16:00.311Z,101316.91
2017-10-03T18:18:35.179Z,101322.52
2017-10-03T18:21:14.055Z,101317.16
2017-10-03T18:23:46.566Z,101325.72
2017-10-03T18:26:34.008Z,101333.02
2017-10-03T18:29:09.669Z,101339.83
2017-10-03T18:31:41.518Z,101341.86
2017-10-03T18:34:14.280Z,101352.64
2017-10-03T18:36:46.129Z,101353.78
2017-10-03T18:39:19.386Z,101357.14
2017-10-03T18:41:51.424Z,101363.11
2017-10-03T18:44:23.577Z,101363.79
2017-10-03T18:46:58.333Z,101365.39
2017-10-03T18:49:34.555Z,101373.88
2017-10-03T18:52:09.208Z,101369.55
2017-10-03T18:54:43.611Z,101369.27
2017-10-03T18:57:20.562Z,101381.10
2017-10-03T18:59:53.661Z,101390.72
2017-10-03T19:02:29.195Z,101389.70
2017-10-03T19:05:05.424Z,101394.80
2017-10-03T19:07:38.833Z,101399.95
2017-10-03T19:13:16.919Z,101398.30
2017-10-03T19:15:50.435Z,101397.00
2017-10-03T19:18:28.635Z,101400.72
2017-10-03T19:21:02.154Z,101409.63
2017-10-03T19:23:41.745Z,101410.31
2017-10-03T19:26:14.936Z,101406.89
2017-10-03T19:34:49.528Z,101424.41
2017-10-03T19:40:30.910Z,101418.98
2017-10-03T19:43:05.792Z,101416.48
2017-10-03T19:45:40.756Z,101418.33
2017-10-03T19:48:14.769Z,101420.22
2017-10-03T19:50:51.450Z,101422.03
2017-10-03T19:53:27.452Z,101420.88
2017-10-03T19:56:00.357Z,101431.96
2017-10-03T19:58:34.279Z,101437.45
2017-10-03T20:11:55.113Z,101458.99
2017-10-03T20:14:27.551Z,101461.16
2017-10-03T20:17:00.273Z,101463.16
2017-10-03T20:19:34.701Z,101463.86
2017-10-03T20:22:06.910Z,101463.91
2017-10-03T20:24:38.663Z,101463.48
2017-10-03T20:30:16.328Z,101472.19
2017-10-03T20:32:49.674Z,101472.75
2017-10-03T20:35:22.394Z,101480.80
2017-10-03T20:37:57.906Z,101484.73
2017-10-03T20:43:37.305Z,101489.27
2017-10-03T20:46:09.012Z,101488.11
2017-10-03T20:48:41.584Z,101492.60
2017-10-03T20:51:13.600Z,101498.88
2017-10-03T20:53:45.244Z,101497.14
2017-10-03T20:56:17.527Z,101504.77
2017-10-03T20:58:49.123Z,101500.05
2017-10-03T21:01:20.657Z,101511.22
2017-10-03T21:03:52.997Z,101507.77
2017-10-03T21:06:24.463Z,101510.10
2017-10-03T21:08:56.361Z,101501.83
2017-10-03T21:11:28.414Z,101502.80
2017-10-03T21:13:59.931Z,101497.70
2017-10-03T21:16:33.402Z,101496.59
2017-10-03T21:19:06.974Z,101503.37
2017-10-03T21:21:40.315Z,101501.44
2017-10-03T21:24:12.764Z,101505.39
2017-10-03T21:26:44.448Z,101508.59
2017-10-03T21:29:17.663Z,101503.37
2017-10-03T21:31:50.543Z,101510.11
2017-10-03T21:34:22.539Z,101515.13
2017-10-03T21:36:54.381Z,101519.19
2017-10-03T21:39:26.333Z,101522.54
2017-10-03T21:42:07.188Z,101520.61
2017-10-03T21:44:39.844Z,101529.03
2017-10-03T21:47:12.449Z,101530.45
2017-10-03T21:49:48.416Z,101532.44
2017-10-03T21:52:25.483Z,101539.97
2017-10-03T21:55:00.146Z,101542.72
2017-10-03T21:57:32.469Z,101547.28
2017-10-03T22:00:15.929Z,101547.38
2017-10-03T22:02:48.053Z,101536.86
2017-10-03T22:05:20.847Z,101535.14
2017-10-03T22:07:52.333Z,101535.59
2017-10-03T22:10:24.812Z,101530.17
2017-10-03T22:12:57.231Z,101535.97
2017-10-03T22:15:28.404Z,101538.33
2017-10-03T22:17:59.539Z,101532.19
2017-10-03T22:20:31.157Z,101535.50
2017-10-03T22:23:09.704Z,101533.42
2017-10-03T22:25:44.628Z,101533.88
2017-10-03T22:28:16.048Z,101530.80
2017-10-03T22:30:50.831Z,101537.05
2017-10-03T22:33:22.962Z,101531.42
2017-10-03T22:35:55.246Z,101531.42
2017-10-03T22:38:26.712Z,101526.16
2017-10-03T22:40:59.057Z,101520.98
2017-10-03T22:43:30.156Z,101525.88
2017-10-03T22:46:04.736Z,101523.84
2017-10-03T22:48:37.783Z,101519.12
2017-10-03T22:57:12.312Z,101515.45
2017-10-03T22:59:43.385Z,101520.44
2017-10-03T23:02:14.744Z,101520.89
2017-10-03T23:04:45.840Z,101521.32
2017-10-03T23:07:17.848Z,101523.91
2017-10-03T23:09:50.380Z,101519.50
2017-10-03T23:15:16.912Z,101507.43
2017-10-03T23:17:48.090Z,101503.38
2017-10-03T23:20:23.157Z,101499.38
2017-10-03T23:28:43.293Z,101494.09
2017-10-03T23:34:11.753Z,101495.52
2017-10-03T23:36:42.816Z,101490.41
2017-10-03T23:39:16.302Z,101494.62
2017-10-03T23:41:47.424Z,101484.89
2017-10-03T23:44:20.456Z,101480.13
2017-10-03T23:46:51.550Z,101484.09
2017-10-03T23:49:25.891Z,101493.77
2017-10-03T23:51:57.068Z,101485.89
2017-10-03T23:54:30.895Z,101497.98
2017-10-03T23:57:04.066Z,101494.80
2017-10-03T23:59:35.436Z,101491.61
